Pagrindinis puslapis
METAR-TAF:

METAR-TAF

Oro uostai :

Sen Deni, Reunjonas

platuma: 20-53S, ilguma: 055-31E, Aukštis: 21 m

Dabartinis oras

Ataskaita buvo paskelbta 27 minutes, ne 10:00 UTC
Vėjas 11 kt iš Rytų/Šiaurės Rytų
Temperatūra 27°C
Drėgmė 70%
Slėgis 1018 hPa
Matomumas 10 km arba daugiau
Su prošvaistėmis ne aukštis 6000 ft

METAR: FMEE 311000Z AUTO 07011KT 9999 BKN060 27/21 Q1018 NOSIG

Laikas: 14:27 (10:27 UTC)

Prognozė

Ataskaita buvo paskelbta 5 valandos ir 27 minutes, ne 05:00 UTC
Prognozė galioja nuo 31 metu 06 UTC su 01 metu 12 UTC
Vėjas 12 kt iš Rytų
Matomumas 10 km arba daugiau
Mažai debesys ne aukštis 3000 ft
Tapsmas
nuo 31 metu 13 UTC su 31 metu 15 UTC
Vėjas 5 kt iš Pietų
Tapsmas
nuo 01 metu 04 UTC su 01 metu 06 UTC
Vėjas 15 kt iš Rytų/Pietryčių

TAF: FMEE 310500Z 3106/0112 08012KT 9999 FEW030 BECMG 3113/3115 18005KT BECMG 0104/0106 11015KT

Orai ataskaitas ir orų prognozės (METAR, TAF).

turimą stotys yra geltonos ir raudonos taškus žemėlapyje.

Perkelti pele per norėdami pamatyti stoties vardą.

Tada spustelėkite, norėdami matyti oro stebėjimo ir prognozės.

Norėdami pakeisti žemėlapį: spustelėkite ant žalios mygtukų su juodo kryžiaus žemyn,; žalią mygtuką su brūkšneliu, jei norite nutolinti; arba žalių rodyklių gretimoms žemėlapius.


METAR-TAF: